createdAt,value
2022-07-27T00:00:14.524Z,24.10
2022-07-27T00:02:16.214Z,24.10
2022-07-27T00:04:18.108Z,24.10
2022-07-27T00:06:19.854Z,24.10
2022-07-27T00:08:23.847Z,24.00
2022-07-27T00:10:25.561Z,23.90
2022-07-27T00:12:27.238Z,23.90
2022-07-27T00:14:28.942Z,23.90
2022-07-27T00:16:30.673Z,23.90
2022-07-27T00:18:32.755Z,23.80
2022-07-27T00:20:34.458Z,23.80
2022-07-27T00:22:36.142Z,23.80
2022-07-27T00:24:37.816Z,23.80
2022-07-27T00:26:39.522Z,23.80
2022-07-27T00:28:41.188Z,23.70
2022-07-27T00:30:42.880Z,23.70
2022-07-27T00:32:44.561Z,23.70
2022-07-27T00:34:47.600Z,23.70
2022-07-27T00:36:49.293Z,23.60
2022-07-27T00:38:51.023Z,23.60
2022-07-27T00:40:53.689Z,23.60
2022-07-27T00:42:55.357Z,23.60
2022-07-27T00:44:57.598Z,23.60
2022-07-27T00:46:59.477Z,23.50
2022-07-27T00:49:01.328Z,23.50
2022-07-27T00:51:03.045Z,23.50
2022-07-27T00:53:04.951Z,23.50
2022-07-27T00:55:06.859Z,23.50
2022-07-27T00:57:12.485Z,23.50
2022-07-27T00:59:14.881Z,23.50
2022-07-27T01:01:18.934Z,23.50
2022-07-27T01:03:20.810Z,23.50
2022-07-27T01:05:36.568Z,23.40
2022-07-27T01:07:44.696Z,23.40
2022-07-27T01:09:58.394Z,23.40
2022-07-27T01:12:00.664Z,23.40
2022-07-27T01:14:02.415Z,23.40
2022-07-27T01:16:07.387Z,23.40
2022-07-27T01:18:12.870Z,23.40
2022-07-27T01:20:14.582Z,23.40
2022-07-27T01:22:16.380Z,23.40
2022-07-27T01:24:18.565Z,23.40
2022-07-27T01:26:20.537Z,23.40
2022-07-27T01:28:22.319Z,23.40
2022-07-27T01:30:26.933Z,23.40
2022-07-27T01:32:28.633Z,23.40
2022-07-27T01:34:33.385Z,23.40
2022-07-27T01:36:35.070Z,23.40
2022-07-27T01:38:36.833Z,23.40
2022-07-27T01:40:39.633Z,23.40
2022-07-27T01:42:41.467Z,23.40
2022-07-27T01:44:43.186Z,23.40
2022-07-27T01:46:45.327Z,23.40
2022-07-27T01:48:47.203Z,23.40
2022-07-27T01:50:50.912Z,23.40
2022-07-27T01:52:52.634Z,23.40
2022-07-27T01:54:54.359Z,23.40
2022-07-27T01:56:56.021Z,23.40
2022-07-27T01:58:58.944Z,23.40
2022-07-27T02:01:00.633Z,23.40
2022-07-27T02:03:04.295Z,23.40
2022-07-27T02:05:06.541Z,23.40
2022-07-27T02:07:08.362Z,23.40
2022-07-27T02:09:10.386Z,23.40
2022-07-27T02:11:30.934Z,23.40
2022-07-27T02:13:32.570Z,23.30
2022-07-27T02:15:43.023Z,23.40
2022-07-27T02:17:45.552Z,23.40
2022-07-27T02:19:47.243Z,23.30
2022-07-27T02:21:48.923Z,23.40
2022-07-27T02:23:50.784Z,23.30
2022-07-27T02:25:52.434Z,23.40
2022-07-27T02:27:54.203Z,23.30
2022-07-27T02:29:56.129Z,23.30
2022-07-27T02:31:57.785Z,23.30
2022-07-27T02:33:59.534Z,23.30
2022-07-27T02:36:01.464Z,23.30
2022-07-27T02:38:03.155Z,23.30
2022-07-27T02:40:05.226Z,23.30
2022-07-27T02:42:07.054Z,23.30
2022-07-27T02:44:08.747Z,23.30
2022-07-27T02:46:10.425Z,23.30
2022-07-27T02:48:12.146Z,23.30
2022-07-27T02:50:13.813Z,23.30
2022-07-27T02:52:15.560Z,23.30
2022-07-27T02:54:18.300Z,23.30
2022-07-27T02:56:19.966Z,23.30
2022-07-27T02:58:28.612Z,23.30
2022-07-27T03:00:30.451Z,23.30
2022-07-27T03:02:32.225Z,23.30
2022-07-27T03:04:34.031Z,23.30
2022-07-27T03:06:35.825Z,23.30
2022-07-27T03:08:37.821Z,23.30
2022-07-27T03:10:39.544Z,23.30
2022-07-27T03:12:41.255Z,23.30
2022-07-27T03:14:42.924Z,23.30
2022-07-27T03:16:44.696Z,23.40
2022-07-27T03:18:47.335Z,23.30
2022-07-27T03:20:51.225Z,23.30
2022-07-27T03:22:54.177Z,23.30
2022-07-27T03:24:55.912Z,23.40
2022-07-27T03:26:57.605Z,23.40
2022-07-27T03:28:59.852Z,23.40
2022-07-27T03:31:01.638Z,23.40
2022-07-27T03:33:03.450Z,23.40
2022-07-27T03:35:05.392Z,23.40
2022-07-27T03:37:07.099Z,23.40
2022-07-27T03:39:09.029Z,23.40
2022-07-27T03:41:10.847Z,23.40
2022-07-27T03:43:12.523Z,23.40
2022-07-27T03:45:14.315Z,23.30
2022-07-27T03:47:15.986Z,23.30
2022-07-27T03:49:17.930Z,23.40
2022-07-27T03:51:20.983Z,23.30
2022-07-27T03:53:22.935Z,23.30
2022-07-27T03:55:25.601Z,23.30
2022-07-27T03:57:27.348Z,23.30
2022-07-27T03:59:29.012Z,23.30
2022-07-27T04:01:30.703Z,23.30
2022-07-27T04:03:32.471Z,23.30
2022-07-27T04:05:34.318Z,23.30
2022-07-27T04:07:35.989Z,23.30
2022-07-27T04:09:37.710Z,23.30
2022-07-27T04:11:43.666Z,23.30
2022-07-27T04:13:52.541Z,23.30
2022-07-27T04:15:56.026Z,23.30
2022-07-27T04:17:58.000Z,23.30
2022-07-27T04:19:59.834Z,23.30
2022-07-27T04:22:01.556Z,23.30
2022-07-27T04:24:03.411Z,23.30
2022-07-27T04:26:05.194Z,23.20
2022-07-27T04:28:06.961Z,23.30
2022-07-27T04:30:09.826Z,23.20
2022-07-27T04:32:11.615Z,23.20
2022-07-27T04:34:13.420Z,23.20
2022-07-27T04:36:15.094Z,23.20
2022-07-27T04:38:16.795Z,23.20
2022-07-27T04:40:20.357Z,23.20
2022-07-27T04:42:22.034Z,23.20
2022-07-27T04:44:23.769Z,23.20
2022-07-27T04:46:25.585Z,23.20
2022-07-27T04:48:27.294Z,23.20
2022-07-27T04:50:28.992Z,23.20
2022-07-27T04:52:33.081Z,23.20
2022-07-27T04:54:34.807Z,23.10
2022-07-27T04:56:36.516Z,23.10
2022-07-27T04:58:38.266Z,23.10
2022-07-27T05:00:40.174Z,23.10
2022-07-27T05:02:41.968Z,23.10
2022-07-27T05:04:43.680Z,23.10
2022-07-27T05:06:46.198Z,23.10
2022-07-27T05:08:47.912Z,23.10
2022-07-27T05:10:49.823Z,23.10
2022-07-27T05:12:51.541Z,23.10
2022-07-27T05:14:53.212Z,23.10
2022-07-27T05:16:54.982Z,23.10
2022-07-27T05:18:57.325Z,23.00
2022-07-27T05:20:59.057Z,23.00
2022-07-27T05:23:00.730Z,23.00
2022-07-27T05:25:02.664Z,23.00
2022-07-27T05:27:04.449Z,23.00
2022-07-27T05:29:06.189Z,23.00
2022-07-27T05:31:07.877Z,23.00
2022-07-27T05:33:09.610Z,23.00
2022-07-27T05:35:11.314Z,23.00
2022-07-27T05:37:13.009Z,23.10
2022-07-27T05:39:15.230Z,23.10
2022-07-27T05:41:21.799Z,23.10
2022-07-27T05:43:23.475Z,23.10
2022-07-27T05:45:26.113Z,23.10
2022-07-27T05:47:27.943Z,23.10
2022-07-27T05:49:29.774Z,23.10
2022-07-27T05:51:31.771Z,23.10
2022-07-27T05:53:34.154Z,23.10
2022-07-27T05:55:35.878Z,23.10
2022-07-27T05:57:37.930Z,23.10
2022-07-27T05:59:39.627Z,23.10
2022-07-27T06:01:41.394Z,23.10
2022-07-27T06:03:43.150Z,23.10
2022-07-27T06:05:44.894Z,23.10
2022-07-27T06:07:58.819Z,23.20
2022-07-27T06:10:00.772Z,23.20
2022-07-27T06:12:02.493Z,23.20
2022-07-27T06:14:04.222Z,23.20
2022-07-27T06:16:06.213Z,23.20
2022-07-27T06:18:14.847Z,23.20
2022-07-27T06:20:16.718Z,23.20
2022-07-27T06:22:19.440Z,23.20
2022-07-27T06:24:21.167Z,23.30
2022-07-27T06:26:23.102Z,23.30
2022-07-27T06:28:24.776Z,23.30
2022-07-27T06:30:26.649Z,23.30
2022-07-27T06:32:28.334Z,23.30
2022-07-27T06:34:30.457Z,23.30
2022-07-27T06:36:34.792Z,23.20
2022-07-27T06:38:37.578Z,23.30
2022-07-27T06:40:40.116Z,23.30
2022-07-27T06:42:41.885Z,23.30
2022-07-27T06:44:43.559Z,23.30
2022-07-27T06:46:45.533Z,23.30
2022-07-27T06:48:47.391Z,23.30
2022-07-27T06:50:49.881Z,23.30
2022-07-27T06:52:51.641Z,23.30
2022-07-27T06:54:53.331Z,23.30
2022-07-27T06:56:55.021Z,23.30
2022-07-27T06:58:56.827Z,23.40
2022-07-27T07:00:59.679Z,23.40
2022-07-27T07:03:03.169Z,23.40
2022-07-27T07:05:05.086Z,23.40
2022-07-27T07:07:07.370Z,23.50
2022-07-27T07:09:09.423Z,23.50
2022-07-27T07:11:13.936Z,23.50
2022-07-27T07:13:15.792Z,23.50
2022-07-27T07:15:17.482Z,23.60
2022-07-27T07:17:19.890Z,23.60
2022-07-27T07:19:21.744Z,23.60
2022-07-27T07:21:23.750Z,23.60
2022-07-27T07:23:25.471Z,23.60
2022-07-27T07:25:27.989Z,23.70
2022-07-27T07:27:29.714Z,23.70
2022-07-27T07:29:31.394Z,23.70
2022-07-27T07:31:33.169Z,23.70
2022-07-27T07:33:34.895Z,23.70
2022-07-27T07:35:36.607Z,23.80
2022-07-27T07:37:38.389Z,23.80
2022-07-27T07:39:40.090Z,23.80
2022-07-27T07:41:41.907Z,23.90
2022-07-27T07:43:43.667Z,23.90
2022-07-27T07:45:50.860Z,23.90
2022-07-27T07:47:53.903Z,24.00
2022-07-27T07:49:55.576Z,24.00
2022-07-27T07:51:57.355Z,24.00
2022-07-27T07:53:59.153Z,24.00
2022-07-27T07:56:00.840Z,24.10
2022-07-27T07:58:02.628Z,24.10
2022-07-27T08:00:06.399Z,24.10
2022-07-27T08:02:13.274Z,24.10
2022-07-27T08:04:14.985Z,24.10
2022-07-27T08:06:16.739Z,24.20
2022-07-27T08:08:18.439Z,24.20
2022-07-27T08:10:20.930Z,24.20
2022-07-27T08:12:22.713Z,24.20
2022-07-27T08:14:26.373Z,24.20
2022-07-27T08:16:28.085Z,24.20
2022-07-27T08:18:29.831Z,24.20
2022-07-27T08:20:31.643Z,24.20
2022-07-27T08:22:33.740Z,24.20
2022-07-27T08:24:35.509Z,24.20
2022-07-27T08:26:37.252Z,24.20
2022-07-27T08:28:39.008Z,24.30
2022-07-27T08:30:40.759Z,24.30
2022-07-27T08:32:55.039Z,24.30
2022-07-27T08:34:56.940Z,24.30
2022-07-27T08:36:58.622Z,24.30
2022-07-27T08:39:04.321Z,24.30
2022-07-27T08:41:06.679Z,24.30
2022-07-27T08:43:09.135Z,24.40
2022-07-27T08:45:12.497Z,24.40
2022-07-27T08:47:19.100Z,24.40
2022-07-27T08:49:21.096Z,24.40
2022-07-27T08:51:24.287Z,24.40
2022-07-27T08:53:26.156Z,24.50
2022-07-27T08:55:44.628Z,24.50
2022-07-27T08:57:46.371Z,24.50
2022-07-27T08:59:48.034Z,24.50
2022-07-27T09:01:50.567Z,24.50
2022-07-27T09:03:52.381Z,24.50
2022-07-27T09:05:55.174Z,24.60
2022-07-27T09:08:16.232Z,24.60
2022-07-27T09:10:33.208Z,24.60
2022-07-27T09:12:34.868Z,24.60
2022-07-27T09:14:37.866Z,24.70
2022-07-27T09:17:21.870Z,24.70
2022-07-27T09:19:06.471Z,24.70
2022-07-27T09:21:13.226Z,24.70
2022-07-27T09:23:25.801Z,24.70
2022-07-27T09:26:01.545Z,24.80
2022-07-27T09:27:57.746Z,24.80
2022-07-27T09:30:04.129Z,24.90
2022-07-27T09:32:15.541Z,24.90
2022-07-27T09:34:28.332Z,24.90
2022-07-27T09:36:30.753Z,24.90
2022-07-27T09:38:32.443Z,24.90
2022-07-27T09:40:36.023Z,25.00
2022-07-27T09:43:05.506Z,25.00
2022-07-27T09:45:00.048Z,25.00
2022-07-27T09:47:19.323Z,25.10
2022-07-27T09:49:31.901Z,25.10
2022-07-27T09:51:59.271Z,25.10
2022-07-27T09:54:08.934Z,25.20
2022-07-27T09:56:16.148Z,25.20
2022-07-27T09:58:17.866Z,25.20
2022-07-27T10:00:19.763Z,25.20
2022-07-27T10:02:21.643Z,25.20
2022-07-27T10:04:23.861Z,25.20
2022-07-27T10:06:26.290Z,25.20
2022-07-27T10:08:28.358Z,25.20
2022-07-27T10:10:30.248Z,25.20
2022-07-27T10:12:32.274Z,25.20
2022-07-27T10:14:35.118Z,25.20
2022-07-27T10:16:37.471Z,25.20
2022-07-27T10:18:58.068Z,25.20
2022-07-27T10:21:04.124Z,25.20
2022-07-27T10:23:07.297Z,25.20
2022-07-27T10:25:09.376Z,25.20
2022-07-27T10:27:31.380Z,25.30
2022-07-27T10:29:33.225Z,25.30
2022-07-27T10:31:36.551Z,25.30
2022-07-27T10:33:40.809Z,25.40
2022-07-27T10:35:42.679Z,25.40
2022-07-27T10:38:04.334Z,25.40
2022-07-27T10:40:25.947Z,25.50
2022-07-27T10:42:29.255Z,25.60
2022-07-27T10:44:31.448Z,25.60
2022-07-27T10:46:36.983Z,25.60
2022-07-27T10:48:46.061Z,25.60
2022-07-27T10:50:50.347Z,25.70
2022-07-27T10:53:00.010Z,25.60
2022-07-27T10:55:05.339Z,25.70
2022-07-27T10:57:08.154Z,25.70
2022-07-27T10:59:09.913Z,25.60
2022-07-27T11:01:15.589Z,25.70
2022-07-27T11:03:23.762Z,25.70
2022-07-27T11:05:58.458Z,25.60
2022-07-27T11:08:13.534Z,25.60
2022-07-27T11:10:09.262Z,25.60
2022-07-27T11:12:12.907Z,25.60
2022-07-27T11:14:15.045Z,25.60
2022-07-27T11:16:24.357Z,25.60
2022-07-27T11:18:28.319Z,25.60
2022-07-27T11:20:31.711Z,25.60
2022-07-27T11:24:59.526Z,25.60
2022-07-27T11:27:01.218Z,25.60
2022-07-27T11:29:20.700Z,25.60
2022-07-27T11:31:38.694Z,25.60
2022-07-27T11:33:54.826Z,25.70
2022-07-27T11:35:58.464Z,25.70
2022-07-27T11:38:06.005Z,25.70
2022-07-27T11:40:42.251Z,25.70
2022-07-27T11:42:39.402Z,25.70
2022-07-27T11:44:42.515Z,25.80
2022-07-27T11:46:45.477Z,25.90
2022-07-27T11:49:05.586Z,25.90
2022-07-27T11:51:08.146Z,26.00
2022-07-27T11:53:09.980Z,26.10
2022-07-27T11:55:13.615Z,26.10
2022-07-27T11:57:22.620Z,26.20
2022-07-27T11:59:28.492Z,26.20
2022-07-27T12:01:31.237Z,26.20
2022-07-27T12:03:47.091Z,26.30
2022-07-27T12:05:50.869Z,26.30
2022-07-27T12:07:54.296Z,26.30
2022-07-27T12:09:57.341Z,26.30
2022-07-27T12:12:08.012Z,26.30
2022-07-27T12:14:13.332Z,26.40
2022-07-27T12:16:18.602Z,26.40
2022-07-27T12:18:20.365Z,26.40
2022-07-27T12:20:24.203Z,26.50
2022-07-27T12:22:38.106Z,26.50
2022-07-27T12:24:40.811Z,26.60
2022-07-27T12:26:42.524Z,26.60
2022-07-27T12:28:44.314Z,26.70
2022-07-27T12:30:50.105Z,26.80
2022-07-27T12:32:55.501Z,26.80
2022-07-27T12:34:57.601Z,26.90
2022-07-27T12:36:59.300Z,26.90
2022-07-27T12:39:01.049Z,27.00
2022-07-27T12:41:02.907Z,27.00
2022-07-27T12:43:05.488Z,27.10
2022-07-27T12:45:10.608Z,27.10
2022-07-27T12:47:30.934Z,27.10
2022-07-27T12:49:35.796Z,27.10
2022-07-27T12:51:37.561Z,27.10
2022-07-27T12:53:39.298Z,27.10
2022-07-27T12:55:41.916Z,27.20
2022-07-27T12:57:55.778Z,27.20
2022-07-27T12:59:58.423Z,27.30
2022-07-27T13:02:00.373Z,27.40
2022-07-27T13:04:02.302Z,27.50
2022-07-27T13:06:07.885Z,27.60
2022-07-27T13:08:16.535Z,27.70
2022-07-27T13:10:19.054Z,27.90
2022-07-27T13:12:22.033Z,27.90
2022-07-27T13:14:24.408Z,28.00
2022-07-27T13:16:26.163Z,28.00
2022-07-27T13:18:27.934Z,28.00
2022-07-27T13:20:29.913Z,28.10
2022-07-27T13:22:31.621Z,28.10
2022-07-27T13:24:33.376Z,28.20
2022-07-27T13:26:35.133Z,28.20
2022-07-27T13:28:36.807Z,28.30
2022-07-27T13:30:38.506Z,28.30
2022-07-27T13:32:40.532Z,28.30
2022-07-27T13:34:42.308Z,28.40
2022-07-27T13:36:44.009Z,28.40
2022-07-27T13:38:45.734Z,28.40
2022-07-27T13:40:48.076Z,28.50
2022-07-27T13:42:49.850Z,28.60
2022-07-27T13:45:05.751Z,28.60
2022-07-27T13:47:10.747Z,28.70
2022-07-27T13:49:12.900Z,28.80
2022-07-27T13:51:16.006Z,28.90
2022-07-27T13:53:17.738Z,29.00
2022-07-27T13:55:21.536Z,29.10
2022-07-27T13:57:26.573Z,29.20
2022-07-27T13:59:28.327Z,29.30
2022-07-27T14:01:30.101Z,29.40
2022-07-27T14:03:31.881Z,29.50
2022-07-27T14:05:34.962Z,29.50
2022-07-27T14:07:36.788Z,29.60
2022-07-27T14:09:57.156Z,29.70
2022-07-27T14:11:58.867Z,29.80
2022-07-27T14:14:00.571Z,29.90
2022-07-27T14:16:02.954Z,30.00
2022-07-27T14:18:05.205Z,30.10
2022-07-27T14:20:07.283Z,30.20
2022-07-27T14:22:12.026Z,30.20
2022-07-27T14:24:13.731Z,30.30
2022-07-27T14:26:15.641Z,30.40
2022-07-27T14:28:17.483Z,30.50
2022-07-27T14:30:21.087Z,30.60
2022-07-27T14:32:23.071Z,30.70
2022-07-27T14:34:24.863Z,30.80
2022-07-27T14:36:26.570Z,30.80
2022-07-27T14:38:30.905Z,30.80
2022-07-27T14:40:32.937Z,30.90
2022-07-27T14:42:34.670Z,30.90
2022-07-27T14:44:36.408Z,30.90
2022-07-27T14:46:38.207Z,30.90
2022-07-27T14:49:05.174Z,31.00
2022-07-27T14:51:01.861Z,31.00
2022-07-27T14:53:03.601Z,31.00
2022-07-27T14:55:05.639Z,31.00
2022-07-27T14:57:07.448Z,31.10
2022-07-27T14:59:09.374Z,31.10
2022-07-27T15:01:11.584Z,31.10
2022-07-27T15:03:14.531Z,31.10
2022-07-27T15:05:16.862Z,31.10
2022-07-27T15:07:18.616Z,31.10
2022-07-27T15:09:20.469Z,31.10
2022-07-27T15:11:23.828Z,31.10
2022-07-27T15:13:25.628Z,31.20
2022-07-27T15:15:27.403Z,31.20
2022-07-27T15:17:29.105Z,31.20
2022-07-27T15:19:30.855Z,31.20
2022-07-27T15:21:32.577Z,31.20
2022-07-27T15:23:34.287Z,31.10
2022-07-27T15:25:36.118Z,31.10
2022-07-27T15:27:37.826Z,31.10
2022-07-27T15:29:40.119Z,31.10
2022-07-27T15:31:42.002Z,31.10
2022-07-27T15:33:43.747Z,31.10
2022-07-27T15:35:45.469Z,31.10
2022-07-27T15:37:54.820Z,31.10
2022-07-27T15:40:01.191Z,31.10
2022-07-27T15:42:03.463Z,31.20
2022-07-27T15:44:05.694Z,31.20
2022-07-27T15:46:08.507Z,31.30
2022-07-27T15:48:12.627Z,31.40
2022-07-27T15:50:14.318Z,31.40
2022-07-27T15:52:16.023Z,31.50
2022-07-27T15:54:18.019Z,31.60
2022-07-27T15:56:19.820Z,31.60
2022-07-27T15:58:21.990Z,31.60
2022-07-27T16:00:24.013Z,31.70
2022-07-27T16:02:28.953Z,31.80
2022-07-27T16:04:30.726Z,31.80
2022-07-27T16:06:38.548Z,31.90
2022-07-27T16:08:41.046Z,31.90
2022-07-27T16:10:43.679Z,31.90
2022-07-27T16:12:45.505Z,32.00
2022-07-27T16:14:47.423Z,32.00
2022-07-27T16:16:49.323Z,32.00
2022-07-27T16:18:54.530Z,32.10
2022-07-27T16:20:56.517Z,32.10
2022-07-27T16:22:58.440Z,32.20
2022-07-27T16:25:00.214Z,32.20
2022-07-27T16:27:02.103Z,32.20
2022-07-27T16:29:03.888Z,32.20
2022-07-27T16:31:06.370Z,32.20
2022-07-27T16:33:08.190Z,32.20
2022-07-27T16:35:10.618Z,32.20
2022-07-27T16:37:12.535Z,32.20
2022-07-27T16:39:14.670Z,32.30
2022-07-27T16:41:17.353Z,32.20
2022-07-27T16:43:19.075Z,32.20
2022-07-27T16:45:20.803Z,32.20
2022-07-27T16:47:22.516Z,32.20
2022-07-27T16:49:33.657Z,32.10
2022-07-27T16:51:38.933Z,32.10
2022-07-27T16:53:42.151Z,31.90
2022-07-27T16:55:43.901Z,31.90
2022-07-27T16:57:45.615Z,31.70
2022-07-27T16:59:47.346Z,31.60
2022-07-27T17:01:49.192Z,31.50
2022-07-27T17:03:51.354Z,31.30
2022-07-27T17:05:53.322Z,31.20
2022-07-27T17:07:55.068Z,31.10
2022-07-27T17:09:56.773Z,30.90
2022-07-27T17:11:58.584Z,30.80
2022-07-27T17:14:01.325Z,30.70
2022-07-27T17:16:05.133Z,30.60
2022-07-27T17:18:06.943Z,30.40
2022-07-27T17:20:08.883Z,30.30
2022-07-27T17:22:10.783Z,30.20
2022-07-27T17:24:12.477Z,30.10
2022-07-27T17:26:14.205Z,29.90
2022-07-27T17:28:15.900Z,29.90
2022-07-27T17:30:18.529Z,29.80
2022-07-27T17:32:20.260Z,29.70
2022-07-27T17:34:22.297Z,29.60
2022-07-27T17:36:24.747Z,29.50
2022-07-27T17:38:27.167Z,29.40
2022-07-27T17:40:28.974Z,29.30
2022-07-27T17:42:31.277Z,29.20
2022-07-27T17:44:34.037Z,29.20
2022-07-27T17:46:39.047Z,29.10
2022-07-27T17:48:41.057Z,29.00
2022-07-27T17:50:42.826Z,28.90
2022-07-27T17:52:45.447Z,28.80
2022-07-27T17:54:47.973Z,28.70
2022-07-27T17:56:49.737Z,28.70
2022-07-27T17:58:51.459Z,28.60
2022-07-27T18:00:53.235Z,28.50
2022-07-27T18:02:54.980Z,28.50
2022-07-27T18:04:56.899Z,28.40
2022-07-27T18:06:58.671Z,28.30
2022-07-27T18:09:00.409Z,28.30
2022-07-27T18:11:02.598Z,28.20
2022-07-27T18:13:05.008Z,28.20
2022-07-27T18:15:26.023Z,28.10
2022-07-27T18:17:27.791Z,28.00
2022-07-27T18:19:29.697Z,28.00
2022-07-27T18:21:32.413Z,27.90
2022-07-27T18:23:34.442Z,27.80
2022-07-27T18:25:36.212Z,27.80
2022-07-27T18:27:38.313Z,27.70
2022-07-27T18:29:42.110Z,27.70
2022-07-27T18:31:46.260Z,27.70
2022-07-27T18:33:50.304Z,27.60
2022-07-27T18:35:52.747Z,27.50
2022-07-27T18:37:55.820Z,27.50
2022-07-27T18:39:57.521Z,27.40
2022-07-27T18:42:03.541Z,27.40
2022-07-27T18:44:05.324Z,27.40
2022-07-27T18:46:07.081Z,27.30
2022-07-27T18:48:12.368Z,27.20
2022-07-27T18:50:14.017Z,27.20
2022-07-27T18:52:15.724Z,27.10
2022-07-27T18:54:17.458Z,27.10
2022-07-27T18:56:19.268Z,27.00
2022-07-27T18:58:21.730Z,26.90
2022-07-27T19:00:24.494Z,26.90
2022-07-27T19:02:26.318Z,26.80
2022-07-27T19:04:28.345Z,26.80
2022-07-27T19:06:30.194Z,26.70
2022-07-27T19:08:32.404Z,26.60
2022-07-27T19:10:34.101Z,26.60
2022-07-27T19:12:36.072Z,26.50
2022-07-27T19:14:38.958Z,26.40
2022-07-27T19:16:41.055Z,26.40
2022-07-27T19:18:42.816Z,26.30
2022-07-27T19:20:44.613Z,26.30
2022-07-27T19:22:47.479Z,26.30
2022-07-27T19:24:54.992Z,26.20
2022-07-27T19:26:56.917Z,26.10
2022-07-27T19:28:58.828Z,26.10
2022-07-27T19:31:00.578Z,26.10
2022-07-27T19:33:02.398Z,26.00
2022-07-27T19:35:04.297Z,25.90
2022-07-27T19:37:06.583Z,25.90
2022-07-27T19:39:09.909Z,25.90
2022-07-27T19:41:15.049Z,25.80
2022-07-27T19:43:16.790Z,25.70
2022-07-27T19:45:18.560Z,25.70
2022-07-27T19:47:20.528Z,25.70
2022-07-27T19:49:25.416Z,25.60
2022-07-27T19:51:27.380Z,25.60
2022-07-27T19:53:29.168Z,25.50
2022-07-27T19:55:30.902Z,25.50
2022-07-27T19:57:32.719Z,25.50
2022-07-27T19:59:56.561Z,25.40
2022-07-27T20:01:56.336Z,25.40
2022-07-27T20:03:58.052Z,25.40
2022-07-27T20:05:59.918Z,25.30
2022-07-27T20:08:01.774Z,25.30
2022-07-27T20:10:04.115Z,25.20
2022-07-27T20:12:06.249Z,25.20
2022-07-27T20:14:07.959Z,25.20
2022-07-27T20:16:09.702Z,25.10
2022-07-27T20:18:11.508Z,25.10
2022-07-27T20:20:13.425Z,25.00
2022-07-27T20:22:15.243Z,25.00
2022-07-27T20:24:17.319Z,25.00
2022-07-27T20:26:19.449Z,24.90
2022-07-27T20:28:21.288Z,24.90
2022-07-27T20:30:23.104Z,24.90
2022-07-27T20:32:25.050Z,24.90
2022-07-27T20:34:26.842Z,24.80
2022-07-27T20:36:28.578Z,24.80
2022-07-27T20:38:30.294Z,24.80
2022-07-27T20:40:31.977Z,24.70
2022-07-27T20:42:33.701Z,24.70
2022-07-27T20:44:35.448Z,24.70
2022-07-27T20:46:37.274Z,24.60
2022-07-27T20:48:39.075Z,24.60
2022-07-27T20:50:40.824Z,24.60
2022-07-27T20:52:42.961Z,24.50
2022-07-27T20:54:44.653Z,24.50
2022-07-27T20:56:46.319Z,24.40
2022-07-27T20:58:48.443Z,24.40
2022-07-27T21:00:51.690Z,24.40
2022-07-27T21:02:54.023Z,24.30
2022-07-27T21:04:55.807Z,24.30
2022-07-27T21:06:57.560Z,24.20
2022-07-27T21:08:59.234Z,24.20
2022-07-27T21:11:01.040Z,24.20
2022-07-27T21:13:02.748Z,24.10
2022-07-27T21:15:06.535Z,24.10
2022-07-27T21:17:11.776Z,24.00
2022-07-27T21:19:14.014Z,24.00
2022-07-27T21:21:15.862Z,23.90
2022-07-27T21:23:35.942Z,23.90
2022-07-27T21:25:39.696Z,23.90
2022-07-27T21:27:41.399Z,23.90
2022-07-27T21:29:43.996Z,23.80
2022-07-27T21:31:50.089Z,23.80
2022-07-27T21:33:51.973Z,23.80
2022-07-27T21:35:53.764Z,23.70
2022-07-27T21:37:55.462Z,23.70
2022-07-27T21:39:57.128Z,23.70
2022-07-27T21:42:02.172Z,23.70
2022-07-27T21:44:04.382Z,23.70
2022-07-27T21:46:06.214Z,23.70
2022-07-27T21:48:07.996Z,23.70
2022-07-27T21:50:12.074Z,23.60
2022-07-27T21:52:13.844Z,23.60
2022-07-27T21:54:15.948Z,23.60
2022-07-27T21:56:18.167Z,23.70
2022-07-27T21:58:19.850Z,23.60
2022-07-27T22:00:25.540Z,23.60
2022-07-27T22:02:28.378Z,23.60
2022-07-27T22:04:30.319Z,23.60
2022-07-27T22:06:32.071Z,23.50
2022-07-27T22:08:34.326Z,23.50
2022-07-27T22:10:36.074Z,23.50
2022-07-27T22:12:37.843Z,23.50
2022-07-27T22:14:39.577Z,23.50
2022-07-27T22:16:41.481Z,23.50
2022-07-27T22:18:43.334Z,23.50
2022-07-27T22:20:45.100Z,23.50
2022-07-27T22:22:47.228Z,23.50
2022-07-27T22:24:49.190Z,23.40
2022-07-27T22:26:50.993Z,23.40
2022-07-27T22:28:52.713Z,23.40
2022-07-27T22:31:20.758Z,23.40
2022-07-27T22:33:16.242Z,23.40
2022-07-27T22:35:18.328Z,23.30
2022-07-27T22:37:19.994Z,23.40
2022-07-27T22:39:21.703Z,23.30
2022-07-27T22:41:23.380Z,23.30
2022-07-27T22:43:25.078Z,23.30
2022-07-27T22:45:26.824Z,23.30
2022-07-27T22:47:28.562Z,23.30
2022-07-27T22:49:30.278Z,23.30
2022-07-27T22:51:49.490Z,23.30
2022-07-27T22:53:53.576Z,23.20
2022-07-27T22:55:55.371Z,23.20
2022-07-27T22:57:57.785Z,23.20
2022-07-27T22:59:59.480Z,23.20
2022-07-27T23:02:03.956Z,23.20
2022-07-27T23:04:05.760Z,23.20
2022-07-27T23:06:07.521Z,23.20
2022-07-27T23:08:09.266Z,23.20
2022-07-27T23:10:30.994Z,23.20
2022-07-27T23:12:32.709Z,23.20
2022-07-27T23:14:34.499Z,23.20
2022-07-27T23:16:36.339Z,23.10
2022-07-27T23:18:38.107Z,23.10
2022-07-27T23:20:39.846Z,23.10
2022-07-27T23:22:41.617Z,23.10
2022-07-27T23:24:43.740Z,23.10
2022-07-27T23:26:45.574Z,23.10
2022-07-27T23:28:47.449Z,23.10
2022-07-27T23:30:51.228Z,23.10
2022-07-27T23:32:54.495Z,23.10
2022-07-27T23:34:56.169Z,23.10
2022-07-27T23:36:57.912Z,23.10
2022-07-27T23:38:59.664Z,23.10
2022-07-27T23:41:01.976Z,23.00
2022-07-27T23:43:03.841Z,23.00
2022-07-27T23:45:05.876Z,23.00
2022-07-27T23:47:07.740Z,22.90
2022-07-27T23:49:09.515Z,22.90
2022-07-27T23:51:17.983Z,22.90
2022-07-27T23:53:20.161Z,22.90
2022-07-27T23:55:22.015Z,22.80
2022-07-27T23:57:23.765Z,22.80
2022-07-27T23:59:25.560Z,22.80
